sensor_id;sensor_type;location;lat;lon;timestamp;pressure;altitude;pressure_sealevel;temperature;humidity
22830;BME280;11581;51.250;6.778;2022-07-04T00:01:16;101535.94;;;19.39;44.26
22830;BME280;11581;51.250;6.778;2022-07-04T00:03:43;101530.34;;;19.40;44.24
22830;BME280;11581;51.250;6.778;2022-07-04T00:06:10;101462.69;;;18.97;44.35
22830;BME280;11581;51.250;6.778;2022-07-04T00:08:37;101530.91;;;19.36;44.88
22830;BME280;11581;51.250;6.778;2022-07-04T00:11:04;101535.84;;;19.32;44.99
22830;BME280;11581;51.250;6.778;2022-07-04T00:13:33;101542.47;;;19.30;45.03
22830;BME280;11581;51.250;6.778;2022-07-04T00:16:00;101517.34;;;19.21;44.87
22830;BME280;11581;51.250;6.778;2022-07-04T00:18:26;101535.75;;;19.26;44.90
22830;BME280;11581;51.250;6.778;2022-07-04T00:20:53;101555.00;;;19.23;44.90
22830;BME280;11581;51.250;6.778;2022-07-04T00:23:20;101536.44;;;19.20;45.29
22830;BME280;11581;51.250;6.778;2022-07-04T00:25:47;101524.88;;;19.11;45.12
22830;BME280;11581;51.250;6.778;2022-07-04T00:28:13;101525.34;;;19.15;45.23
22830;BME280;11581;51.250;6.778;2022-07-04T00:30:43;101502.19;;;18.98;45.99
22830;BME280;11581;51.250;6.778;2022-07-04T00:33:13;101529.63;;;19.09;46.44
22830;BME280;11581;51.250;6.778;2022-07-04T00:35:40;101499.41;;;18.91;45.60
22830;BME280;11581;51.250;6.778;2022-07-04T00:38:07;101526.34;;;18.99;45.96
22830;BME280;11581;51.250;6.778;2022-07-04T00:40:33;101528.69;;;19.02;45.87
22830;BME280;11581;51.250;6.778;2022-07-04T00:43:02;101512.69;;;18.93;46.04
22830;BME280;11581;51.250;6.778;2022-07-04T00:45:29;101466.16;;;18.68;45.86
22830;BME280;11581;51.250;6.778;2022-07-04T00:47:57;101514.22;;;18.95;46.46
22830;BME280;11581;51.250;6.778;2022-07-04T00:50:24;101495.09;;;18.82;46.28
22830;BME280;11581;51.250;6.778;2022-07-04T00:52:52;101512.25;;;18.89;46.50
22830;BME280;11581;51.250;6.778;2022-07-04T00:55:21;101499.56;;;18.75;46.53
22830;BME280;11581;51.250;6.778;2022-07-04T00:57:48;101514.66;;;18.84;46.33
22830;BME280;11581;51.250;6.778;2022-07-04T01:00:16;101518.75;;;18.80;46.51
22830;BME280;11581;51.250;6.778;2022-07-04T01:02:44;101509.16;;;18.78;46.53
22830;BME280;11581;51.250;6.778;2022-07-04T01:05:13;101504.97;;;18.75;47.30
22830;BME280;11581;51.250;6.778;2022-07-04T01:07:40;101510.72;;;18.72;46.94
22830;BME280;11581;51.250;6.778;2022-07-04T01:10:08;101516.50;;;18.69;47.15
22830;BME280;11581;51.250;6.778;2022-07-04T01:12:36;101504.34;;;18.65;46.98
22830;BME280;11581;51.250;6.778;2022-07-04T01:15:04;101511.81;;;18.63;47.29
22830;BME280;11581;51.250;6.778;2022-07-04T01:17:31;101510.50;;;18.59;47.33
22830;BME280;11581;51.250;6.778;2022-07-04T01:19:58;101514.19;;;18.58;47.49
22830;BME280;11581;51.250;6.778;2022-07-04T01:22:27;101490.50;;;18.46;48.09
22830;BME280;11581;51.250;6.778;2022-07-04T01:24:54;101505.81;;;18.53;47.82
22830;BME280;11581;51.250;6.778;2022-07-04T01:27:20;101489.00;;;18.43;47.91
22830;BME280;11581;51.250;6.778;2022-07-04T01:29:47;101498.97;;;18.43;47.84
22830;BME280;11581;51.250;6.778;2022-07-04T01:32:15;101448.41;;;18.06;48.37
22830;BME280;11581;51.250;6.778;2022-07-04T01:34:42;101518.53;;;18.45;48.05
22830;BME280;11581;51.250;6.778;2022-07-04T01:37:09;101492.75;;;18.34;48.34
22830;BME280;11581;51.250;6.778;2022-07-04T01:39:38;101488.75;;;18.30;49.20
22830;BME280;11581;51.250;6.778;2022-07-04T01:42:06;101501.69;;;18.35;48.66
22830;BME280;11581;51.250;6.778;2022-07-04T01:44:33;101510.81;;;18.34;48.90
22830;BME280;11581;51.250;6.778;2022-07-04T01:47:00;101500.72;;;18.28;48.82
22830;BME280;11581;51.250;6.778;2022-07-04T01:49:27;101504.94;;;18.30;48.77
22830;BME280;11581;51.250;6.778;2022-07-04T01:51:54;101506.97;;;18.28;49.08
22830;BME280;11581;51.250;6.778;2022-07-04T01:54:21;101509.00;;;18.26;49.13
22830;BME280;11581;51.250;6.778;2022-07-04T01:56:51;101454.94;;;17.89;49.56
22830;BME280;11581;51.250;6.778;2022-07-04T01:59:18;101413.97;;;17.55;49.13
22830;BME280;11581;51.250;6.778;2022-07-04T02:02:05;101500.00;;;18.11;49.06
22830;BME280;11581;51.250;6.778;2022-07-04T02:04:31;101420.31;;;17.62;49.53
22830;BME280;11581;51.250;6.778;2022-07-04T02:06:59;101366.22;;;17.25;49.96
22830;BME280;11581;51.250;6.778;2022-07-04T02:09:26;101509.59;;;18.14;49.78
22830;BME280;11581;51.250;6.778;2022-07-04T02:11:55;101519.91;;;18.10;50.22
22830;BME280;11581;51.250;6.778;2022-07-04T02:14:40;101523.97;;;18.06;49.82
22830;BME280;11581;51.250;6.778;2022-07-04T02:17:08;101519.63;;;17.97;49.61
22830;BME280;11581;51.250;6.778;2022-07-04T02:19:35;101532.59;;;18.02;50.07
22830;BME280;11581;51.250;6.778;2022-07-04T02:22:02;101528.59;;;17.98;50.08
22830;BME280;11581;51.250;6.778;2022-07-04T02:24:29;101525.56;;;17.93;50.52
22830;BME280;11581;51.250;6.778;2022-07-04T02:26:58;101520.41;;;17.83;51.36
22830;BME280;11581;51.250;6.778;2022-07-04T02:29:25;101531.72;;;17.78;50.70
22830;BME280;11581;51.250;6.778;2022-07-04T02:31:53;101535.09;;;17.81;51.22
22830;BME280;11581;51.250;6.778;2022-07-04T02:34:20;101486.84;;;17.47;51.16
22830;BME280;11581;51.250;6.778;2022-07-04T02:36:47;101540.31;;;17.74;51.30
22830;BME280;11581;51.250;6.778;2022-07-04T02:39:14;101539.84;;;17.70;51.17
22830;BME280;11581;51.250;6.778;2022-07-04T02:41:41;101541.00;;;17.68;51.48
22830;BME280;11581;51.250;6.778;2022-07-04T02:44:09;101545.09;;;17.64;52.19
22830;BME280;11581;51.250;6.778;2022-07-04T02:46:36;101541.72;;;17.62;51.61
22830;BME280;11581;51.250;6.778;2022-07-04T02:49:03;101542.91;;;17.59;51.77
22830;BME280;11581;51.250;6.778;2022-07-04T02:51:31;101542.44;;;17.56;51.78
22830;BME280;11581;51.250;6.778;2022-07-04T02:53:58;101519.84;;;17.41;51.72
22830;BME280;11581;51.250;6.778;2022-07-04T02:56:25;101548.34;;;17.51;51.96
22830;BME280;11581;51.250;6.778;2022-07-04T02:58:53;101563.00;;;17.49;51.89
22830;BME280;11581;51.250;6.778;2022-07-04T03:01:21;101568.72;;;17.46;52.73
22830;BME280;11581;51.250;6.778;2022-07-04T03:03:48;101557.25;;;17.36;52.12
22830;BME280;11581;51.250;6.778;2022-07-04T03:06:15;101571.94;;;17.41;52.23
22830;BME280;11581;51.250;6.778;2022-07-04T03:08:42;101562.31;;;17.39;52.40
22830;BME280;11581;51.250;6.778;2022-07-04T03:11:10;101562.66;;;17.36;52.55
22830;BME280;11581;51.250;6.778;2022-07-04T03:13:39;101570.09;;;17.34;53.38
22830;BME280;11581;51.250;6.778;2022-07-04T03:16:06;101572.97;;;17.32;52.67
22830;BME280;11581;51.250;6.778;2022-07-04T03:18:34;101559.34;;;17.18;53.25
22830;BME280;11581;51.250;6.778;2022-07-04T03:21:01;101568.41;;;17.25;52.93
22830;BME280;11581;51.250;6.778;2022-07-04T03:23:29;101582.25;;;17.30;53.07
22830;BME280;11581;51.250;6.778;2022-07-04T03:25:56;101589.47;;;17.29;53.21
22830;BME280;11581;51.250;6.778;2022-07-04T03:28:23;101508.16;;;16.78;53.27
22830;BME280;11581;51.250;6.778;2022-07-04T03:30:53;101592.34;;;17.28;53.39
22830;BME280;11581;51.250;6.778;2022-07-04T03:33:21;101600.44;;;17.28;53.53
22830;BME280;11581;51.250;6.778;2022-07-04T03:35:50;101601.44;;;17.27;54.30
22830;BME280;11581;51.250;6.778;2022-07-04T03:38:17;101595.22;;;17.26;53.84
22830;BME280;11581;51.250;6.778;2022-07-04T03:40:43;101594.34;;;17.26;53.87
22830;BME280;11581;51.250;6.778;2022-07-04T03:43:10;101587.97;;;17.19;54.07
22830;BME280;11581;51.250;6.778;2022-07-04T03:45:39;101597.72;;;17.28;54.17
22830;BME280;11581;51.250;6.778;2022-07-04T03:48:07;101468.97;;;16.51;54.01
22830;BME280;11581;51.250;6.778;2022-07-04T03:50:33;101592.34;;;17.28;54.28
22830;BME280;11581;51.250;6.778;2022-07-04T03:53:04;101595.03;;;17.28;55.52
22830;BME280;11581;51.250;6.778;2022-07-04T03:55:30;101601.13;;;17.30;54.40
22830;BME280;11581;51.250;6.778;2022-07-04T03:57:57;101577.19;;;17.19;54.35
22830;BME280;11581;51.250;6.778;2022-07-04T04:00:24;101591.66;;;17.34;54.61
22830;BME280;11581;51.250;6.778;2022-07-04T04:02:51;101596.88;;;17.35;54.62
22830;BME280;11581;51.250;6.778;2022-07-04T04:05:18;101593.69;;;17.32;54.70
22830;BME280;11581;51.250;6.778;2022-07-04T04:07:55;101559.97;;;17.20;54.96
22830;BME280;11581;51.250;6.778;2022-07-04T04:10:24;101595.69;;;17.46;55.46
22830;BME280;11581;51.250;6.778;2022-07-04T04:12:51;101584.44;;;17.42;54.82
22830;BME280;11581;51.250;6.778;2022-07-04T04:15:18;101577.84;;;17.45;54.95
22830;BME280;11581;51.250;6.778;2022-07-04T04:17:45;101594.66;;;17.55;54.81
22830;BME280;11581;51.250;6.778;2022-07-04T04:20:12;101596.03;;;17.59;54.80
22830;BME280;11581;51.250;6.778;2022-07-04T04:22:40;101575.81;;;17.47;54.79
22830;BME280;11581;51.250;6.778;2022-07-04T04:25:07;101607.47;;;17.69;54.86
22830;BME280;11581;51.250;6.778;2022-07-04T04:27:35;101607.13;;;17.72;55.26
22830;BME280;11581;51.250;6.778;2022-07-04T04:30:03;101609.94;;;17.78;54.66
22830;BME280;11581;51.250;6.778;2022-07-04T04:32:31;101593.09;;;17.76;54.87
22830;BME280;11581;51.250;6.778;2022-07-04T04:34:58;101519.53;;;17.44;55.11
22830;BME280;11581;51.250;6.778;2022-07-04T04:37:25;101609.91;;;17.95;54.83
22830;BME280;11581;51.250;6.778;2022-07-04T04:39:52;101607.34;;;18.01;54.85
22830;BME280;11581;51.250;6.778;2022-07-04T04:42:22;101553.50;;;17.69;54.81
22830;BME280;11581;51.250;6.778;2022-07-04T04:44:51;101615.72;;;18.14;55.29
22830;BME280;11581;51.250;6.778;2022-07-04T04:47:18;101617.69;;;18.20;54.69
22830;BME280;11581;51.250;6.778;2022-07-04T04:49:45;101593.13;;;18.07;54.79
22830;BME280;11581;51.250;6.778;2022-07-04T04:52:13;101623.38;;;18.33;54.88
22830;BME280;11581;51.250;6.778;2022-07-04T04:54:41;101634.19;;;18.41;55.00
22830;BME280;11581;51.250;6.778;2022-07-04T04:57:10;101605.31;;;18.34;54.98
22830;BME280;11581;51.250;6.778;2022-07-04T04:59:37;101630.19;;;18.60;55.30
22830;BME280;11581;51.250;6.778;2022-07-04T05:02:06;101612.47;;;18.57;55.57
22830;BME280;11581;51.250;6.778;2022-07-04T05:04:33;101629.84;;;18.85;55.35
22830;BME280;11581;51.250;6.778;2022-07-04T05:07:00;101618.94;;;19.01;55.60
22830;BME280;11581;51.250;6.778;2022-07-04T05:09:27;101627.00;;;19.24;55.54
22830;BME280;11581;51.250;6.778;2022-07-04T05:11:54;101621.22;;;19.49;55.28
22830;BME280;11581;51.250;6.778;2022-07-04T05:14:21;101617.31;;;19.81;55.19
22830;BME280;11581;51.250;6.778;2022-07-04T05:16:48;101599.94;;;20.05;54.92
22830;BME280;11581;51.250;6.778;2022-07-04T05:19:16;101625.44;;;20.60;53.63
22830;BME280;11581;51.250;6.778;2022-07-04T05:21:43;101627.63;;;21.07;53.32
22830;BME280;11581;51.250;6.778;2022-07-04T05:24:10;101610.25;;;21.50;52.55
22830;BME280;11581;51.250;6.778;2022-07-04T05:26:38;101621.50;;;22.09;51.44
22830;BME280;11581;51.250;6.778;2022-07-04T05:29:05;101608.13;;;22.54;50.46
22830;BME280;11581;51.250;6.778;2022-07-04T05:31:32;101617.44;;;23.18;49.44
22830;BME280;11581;51.250;6.778;2022-07-04T05:33:59;101614.88;;;23.75;48.46
22830;BME280;11581;51.250;6.778;2022-07-04T05:36:27;101611.41;;;24.32;46.44
22830;BME280;11581;51.250;6.778;2022-07-04T05:38:54;101619.00;;;24.99;45.75
22830;BME280;11581;51.250;6.778;2022-07-04T05:41:21;101615.13;;;25.62;44.68
22830;BME280;11581;51.250;6.778;2022-07-04T05:43:48;101612.97;;;26.25;43.14
22830;BME280;11581;51.250;6.778;2022-07-04T05:46:15;101621.63;;;26.87;42.29
22830;BME280;11581;51.250;6.778;2022-07-04T05:48:42;101619.97;;;27.50;41.24
22830;BME280;11581;51.250;6.778;2022-07-04T05:51:09;101630.44;;;28.11;39.96
22830;BME280;11581;51.250;6.778;2022-07-04T05:53:37;101593.94;;;28.62;37.93
22830;BME280;11581;51.250;6.778;2022-07-04T05:56:05;101619.25;;;29.41;37.49
22830;BME280;11581;51.250;6.778;2022-07-04T05:58:31;101621.19;;;29.95;36.59
22830;BME280;11581;51.250;6.778;2022-07-04T06:00:58;101619.94;;;30.46;35.41
22830;BME280;11581;51.250;6.778;2022-07-04T06:03:26;101620.47;;;30.91;34.63
22830;BME280;11581;51.250;6.778;2022-07-04T06:05:53;101614.00;;;31.34;33.63
22830;BME280;11581;51.250;6.778;2022-07-04T06:08:21;101616.22;;;31.73;33.06
22830;BME280;11581;51.250;6.778;2022-07-04T06:10:50;101602.66;;;32.08;31.43
22830;BME280;11581;51.250;6.778;2022-07-04T06:13:17;101578.78;;;32.39;31.36
22830;BME280;11581;51.250;6.778;2022-07-04T06:15:44;101611.50;;;33.07;31.07
22830;BME280;11581;51.250;6.778;2022-07-04T06:18:11;101610.38;;;33.58;30.35
22830;BME280;11581;51.250;6.778;2022-07-04T06:20:42;101613.34;;;34.12;29.32
22830;BME280;11581;51.250;6.778;2022-07-04T06:23:09;101600.44;;;34.51;28.59
22830;BME280;11581;51.250;6.778;2022-07-04T06:25:36;101614.16;;;35.10;27.72
22830;BME280;11581;51.250;6.778;2022-07-04T06:28:05;101618.53;;;35.54;26.22
22830;BME280;11581;51.250;6.778;2022-07-04T06:30:32;101613.16;;;35.91;26.16
22830;BME280;11581;51.250;6.778;2022-07-04T06:32:58;101609.09;;;36.26;26.13
22830;BME280;11581;51.250;6.778;2022-07-04T06:35:27;101606.94;;;36.65;24.49
22830;BME280;11581;51.250;6.778;2022-07-04T06:38:18;101612.81;;;37.01;24.46
22830;BME280;11581;51.250;6.778;2022-07-04T06:40:46;101617.88;;;37.31;23.89
22830;BME280;11581;51.250;6.778;2022-07-04T06:43:16;101613.72;;;37.60;22.89
22830;BME280;11581;51.250;6.778;2022-07-04T06:45:43;101616.56;;;37.87;23.08
22830;BME280;11581;51.250;6.778;2022-07-04T06:48:10;101618.38;;;38.11;22.28
22830;BME280;11581;51.250;6.778;2022-07-04T06:50:37;101633.50;;;38.32;21.63
22830;BME280;11581;51.250;6.778;2022-07-04T06:53:05;101576.16;;;38.17;21.51
22830;BME280;11581;51.250;6.778;2022-07-04T06:55:36;101587.75;;;38.46;20.45
22830;BME280;11581;51.250;6.778;2022-07-04T06:58:06;101630.09;;;38.97;20.28
22830;BME280;11581;51.250;6.778;2022-07-04T07:00:36;101627.13;;;39.16;19.79
22830;BME280;11581;51.250;6.778;2022-07-04T07:03:04;101619.97;;;39.45;20.01
22830;BME280;11581;51.250;6.778;2022-07-04T07:05:31;101612.69;;;39.66;19.65
22830;BME280;11581;51.250;6.778;2022-07-04T07:07:59;101627.34;;;40.03;19.37
22830;BME280;11581;51.250;6.778;2022-07-04T07:10:26;101613.78;;;40.27;18.72
22830;BME280;11581;51.250;6.778;2022-07-04T07:12:53;101620.88;;;40.41;17.86
22830;BME280;11581;51.250;6.778;2022-07-04T07:15:22;101597.69;;;40.41;17.76
22830;BME280;11581;51.250;6.778;2022-07-04T07:17:51;101624.34;;;40.64;17.15
22830;BME280;11581;51.250;6.778;2022-07-04T07:20:18;101608.63;;;40.68;17.60
22830;BME280;11581;51.250;6.778;2022-07-04T07:22:44;101617.00;;;40.85;17.46
22830;BME280;11581;51.250;6.778;2022-07-04T07:25:12;101603.69;;;40.90;17.53
22830;BME280;11581;51.250;6.778;2022-07-04T07:27:39;101624.06;;;41.25;16.79
22830;BME280;11581;51.250;6.778;2022-07-04T07:30:08;101606.25;;;41.38;16.53
22830;BME280;11581;51.250;6.778;2022-07-04T07:32:35;101571.56;;;41.22;16.03
22830;BME280;11581;51.250;6.778;2022-07-04T07:35:04;101604.78;;;41.49;15.61
22830;BME280;11581;51.250;6.778;2022-07-04T07:37:32;101626.13;;;41.70;16.33
22830;BME280;11581;51.250;6.778;2022-07-04T07:40:00;101617.97;;;41.86;15.92
22830;BME280;11581;51.250;6.778;2022-07-04T07:42:28;101617.78;;;42.00;16.02
22830;BME280;11581;51.250;6.778;2022-07-04T07:44:56;101625.25;;;42.25;15.47
22830;BME280;11581;51.250;6.778;2022-07-04T07:47:23;101602.28;;;42.31;15.60
22830;BME280;11581;51.250;6.778;2022-07-04T07:49:50;101616.75;;;42.62;15.19
22830;BME280;11581;51.250;6.778;2022-07-04T07:52:19;101615.09;;;42.70;15.01
22830;BME280;11581;51.250;6.778;2022-07-04T07:54:46;101628.09;;;42.74;14.58
22830;BME280;11581;51.250;6.778;2022-07-04T07:57:14;101578.25;;;42.51;14.95
22830;BME280;11581;51.250;6.778;2022-07-04T07:59:42;101600.88;;;42.66;15.26
22830;BME280;11581;51.250;6.778;2022-07-04T08:02:09;101617.97;;;42.82;15.12
22830;BME280;11581;51.250;6.778;2022-07-04T08:04:36;101615.88;;;42.91;15.11
22830;BME280;11581;51.250;6.778;2022-07-04T08:07:04;101619.72;;;43.07;14.32
22830;BME280;11581;51.250;6.778;2022-07-04T08:09:33;101573.94;;;42.94;14.54
22830;BME280;11581;51.250;6.778;2022-07-04T08:12:02;101599.19;;;43.27;14.24
22830;BME280;11581;51.250;6.778;2022-07-04T08:14:30;101617.84;;;43.43;13.91
22830;BME280;11581;51.250;6.778;2022-07-04T08:16:58;101608.94;;;43.41;13.69
22830;BME280;11581;51.250;6.778;2022-07-04T08:19:25;101608.56;;;43.51;14.21
22830;BME280;11581;51.250;6.778;2022-07-04T08:21:53;101616.28;;;43.66;14.11
22830;BME280;11581;51.250;6.778;2022-07-04T08:24:20;101623.47;;;43.88;13.90
22830;BME280;11581;51.250;6.778;2022-07-04T08:26:49;101611.06;;;44.01;13.17
22830;BME280;11581;51.250;6.778;2022-07-04T08:29:17;101613.06;;;44.25;13.58
22830;BME280;11581;51.250;6.778;2022-07-04T08:31:46;101618.06;;;44.43;13.61
22830;BME280;11581;51.250;6.778;2022-07-04T08:34:13;101590.91;;;44.47;13.40
22830;BME280;11581;51.250;6.778;2022-07-04T08:36:41;101595.78;;;44.74;13.40
22830;BME280;11581;51.250;6.778;2022-07-04T08:41:38;101603.47;;;45.17;12.74
22830;BME280;11581;51.250;6.778;2022-07-04T08:44:08;101453.38;;;44.42;12.24
22830;BME280;11581;51.250;6.778;2022-07-04T08:46:38;101595.44;;;45.46;12.41
22830;BME280;11581;51.250;6.778;2022-07-04T08:49:11;101602.91;;;45.70;12.02
22830;BME280;11581;51.250;6.778;2022-07-04T08:51:47;101584.16;;;45.74;11.93
22830;BME280;11581;51.250;6.778;2022-07-04T08:54:18;101603.28;;;46.00;12.22
22830;BME280;11581;51.250;6.778;2022-07-04T08:57:03;101605.81;;;46.05;12.21
22830;BME280;11581;51.250;6.778;2022-07-04T08:59:49;101604.28;;;46.07;12.32
22830;BME280;11581;51.250;6.778;2022-07-04T09:02:18;101586.53;;;46.07;12.26
22830;BME280;11581;51.250;6.778;2022-07-04T09:04:49;101583.84;;;46.10;11.93
22830;BME280;11581;51.250;6.778;2022-07-04T09:07:16;101587.00;;;46.09;12.07
22830;BME280;11581;51.250;6.778;2022-07-04T09:09:45;101588.47;;;46.03;11.92
22830;BME280;11581;51.250;6.778;2022-07-04T09:12:12;101593.81;;;46.08;12.12
22830;BME280;11581;51.250;6.778;2022-07-04T09:14:40;101600.41;;;46.12;11.89
22830;BME280;11581;51.250;6.778;2022-07-04T09:17:08;101593.38;;;46.21;11.70
22830;BME280;11581;51.250;6.778;2022-07-04T09:19:35;101597.41;;;46.39;11.93
22830;BME280;11581;51.250;6.778;2022-07-04T09:22:05;101593.00;;;46.57;11.24
22830;BME280;11581;51.250;6.778;2022-07-04T09:24:46;101588.03;;;46.70;11.39
22830;BME280;11581;51.250;6.778;2022-07-04T09:27:31;101531.25;;;46.37;11.77
22830;BME280;11581;51.250;6.778;2022-07-04T09:29:59;101582.53;;;46.77;11.13
22830;BME280;11581;51.250;6.778;2022-07-04T09:32:38;101586.78;;;46.86;11.54
22830;BME280;11581;51.250;6.778;2022-07-04T09:35:07;101583.69;;;46.91;11.03
22830;BME280;11581;51.250;6.778;2022-07-04T09:37:36;101586.94;;;46.93;11.01
22830;BME280;11581;51.250;6.778;2022-07-04T09:40:07;101553.66;;;46.83;11.13
22830;BME280;11581;51.250;6.778;2022-07-04T09:42:38;101537.44;;;46.80;10.84
22830;BME280;11581;51.250;6.778;2022-07-04T09:45:12;101578.31;;;47.05;10.65
22830;BME280;11581;51.250;6.778;2022-07-04T09:47:44;101562.13;;;46.83;10.49
22830;BME280;11581;51.250;6.778;2022-07-04T09:50:14;101585.25;;;46.89;10.37
22830;BME280;11581;51.250;6.778;2022-07-04T09:52:47;101591.44;;;46.79;10.57
22830;BME280;11581;51.250;6.778;2022-07-04T09:55:23;101571.13;;;46.70;10.85
22830;BME280;11581;51.250;6.778;2022-07-04T09:57:50;101566.13;;;46.63;11.31
22830;BME280;11581;51.250;6.778;2022-07-04T10:00:22;101575.78;;;46.62;10.73
22830;BME280;11581;51.250;6.778;2022-07-04T10:02:51;101543.50;;;46.60;10.87
22830;BME280;11581;51.250;6.778;2022-07-04T10:05:23;101577.16;;;46.87;10.62
22830;BME280;11581;51.250;6.778;2022-07-04T10:07:51;101568.38;;;46.92;11.07
22830;BME280;11581;51.250;6.778;2022-07-04T10:10:27;101583.06;;;47.01;10.81
22830;BME280;11581;51.250;6.778;2022-07-04T10:12:57;101582.78;;;47.06;10.82
22830;BME280;11581;51.250;6.778;2022-07-04T10:15:25;101580.84;;;47.10;10.92
22830;BME280;11581;51.250;6.778;2022-07-04T10:17:54;101579.25;;;47.13;10.89
22830;BME280;11581;51.250;6.778;2022-07-04T10:20:20;101574.00;;;47.11;10.67
22830;BME280;11581;51.250;6.778;2022-07-04T10:22:48;101555.28;;;47.03;10.93
22830;BME280;11581;51.250;6.778;2022-07-04T10:25:16;101562.84;;;46.99;10.72
22830;BME280;11581;51.250;6.778;2022-07-04T10:27:43;101571.50;;;46.87;10.68
22830;BME280;11581;51.250;6.778;2022-07-04T10:30:17;101572.22;;;46.65;10.74
22830;BME280;11581;51.250;6.778;2022-07-04T10:32:47;101547.91;;;46.42;11.12
22830;BME280;11581;51.250;6.778;2022-07-04T10:35:17;101552.50;;;46.31;11.04
22830;BME280;11581;51.250;6.778;2022-07-04T10:38:01;101556.66;;;46.18;11.33
22830;BME280;11581;51.250;6.778;2022-07-04T10:40:43;101556.72;;;46.06;11.36
22830;BME280;11581;51.250;6.778;2022-07-04T10:46:34;101558.41;;;45.44;11.09
22830;BME280;11581;51.250;6.778;2022-07-04T10:49:04;101536.00;;;44.93;11.72
22830;BME280;11581;51.250;6.778;2022-07-04T10:51:38;101544.94;;;44.67;11.55
22830;BME280;11581;51.250;6.778;2022-07-04T10:54:08;101544.19;;;44.31;11.77
22830;BME280;11581;51.250;6.778;2022-07-04T10:56:49;101530.66;;;43.97;12.01
22830;BME280;11581;51.250;6.778;2022-07-04T10:59:18;101510.88;;;43.57;12.32
22830;BME280;11581;51.250;6.778;2022-07-04T11:01:49;101528.78;;;43.64;12.63
22830;BME280;11581;51.250;6.778;2022-07-04T11:04:45;101518.00;;;43.66;12.78
22830;BME280;11581;51.250;6.778;2022-07-04T11:10:21;101514.47;;;44.06;11.98
22830;BME280;11581;51.250;6.778;2022-07-04T11:13:07;101520.31;;;44.25;12.22
22830;BME280;11581;51.250;6.778;2022-07-04T11:16:03;101521.47;;;44.36;11.72
22830;BME280;11581;51.250;6.778;2022-07-04T11:18:38;101463.53;;;44.07;11.49
22830;BME280;11581;51.250;6.778;2022-07-04T11:21:15;101514.66;;;44.37;11.54
22830;BME280;11581;51.250;6.778;2022-07-04T11:23:49;101496.53;;;44.10;11.62
22830;BME280;11581;51.250;6.778;2022-07-04T11:26:20;101430.72;;;43.35;11.78
22830;BME280;11581;51.250;6.778;2022-07-04T11:28:50;101477.94;;;43.09;12.18
22830;BME280;11581;51.250;6.778;2022-07-04T11:31:17;101510.84;;;42.68;12.11
22830;BME280;11581;51.250;6.778;2022-07-04T11:33:45;101518.59;;;42.21;13.06
22830;BME280;11581;51.250;6.778;2022-07-04T11:36:14;101485.59;;;41.77;13.42
22830;BME280;11581;51.250;6.778;2022-07-04T11:38:44;101502.88;;;41.79;13.44
22830;BME280;11581;51.250;6.778;2022-07-04T11:41:11;101451.78;;;41.53;13.64
22830;BME280;11581;51.250;6.778;2022-07-04T11:43:58;101501.63;;;41.97;13.47
22830;BME280;11581;51.250;6.778;2022-07-04T11:46:45;101493.78;;;42.11;13.24
22830;BME280;11581;51.250;6.778;2022-07-04T11:49:13;101475.81;;;42.12;12.88
22830;BME280;11581;51.250;6.778;2022-07-04T11:51:46;101477.00;;;42.32;12.86
22830;BME280;11581;51.250;6.778;2022-07-04T11:54:16;101487.72;;;42.50;13.11
22830;BME280;11581;51.250;6.778;2022-07-04T11:56:44;101482.66;;;42.64;13.05
22830;BME280;11581;51.250;6.778;2022-07-04T11:59:15;101416.53;;;42.31;12.66
22830;BME280;11581;51.250;6.778;2022-07-04T12:01:42;101471.72;;;42.83;12.56
22830;BME280;11581;51.250;6.778;2022-07-04T12:04:14;101404.53;;;42.42;11.71
22830;BME280;11581;51.250;6.778;2022-07-04T12:06:41;101493.31;;;42.71;11.51
22830;BME280;11581;51.250;6.778;2022-07-04T12:09:09;101455.56;;;42.07;12.24
22830;BME280;11581;51.250;6.778;2022-07-04T12:11:55;101484.88;;;41.80;12.72
22830;BME280;11581;51.250;6.778;2022-07-04T12:14:25;101483.94;;;41.47;13.10
22830;BME280;11581;51.250;6.778;2022-07-04T12:17:16;101483.56;;;41.11;13.55
22830;BME280;11581;51.250;6.778;2022-07-04T12:19:51;101489.50;;;40.92;13.50
22830;BME280;11581;51.250;6.778;2022-07-04T12:22:43;101467.69;;;40.69;13.74
22830;BME280;11581;51.250;6.778;2022-07-04T12:25:23;101433.31;;;40.43;13.75
22830;BME280;11581;51.250;6.778;2022-07-04T12:27:56;101480.34;;;40.58;13.97
22830;BME280;11581;51.250;6.778;2022-07-04T12:30:25;101482.78;;;40.51;13.71
22830;BME280;11581;51.250;6.778;2022-07-04T12:32:56;101477.53;;;40.41;13.84
22830;BME280;11581;51.250;6.778;2022-07-04T12:35:44;101477.66;;;40.19;13.57
22830;BME280;11581;51.250;6.778;2022-07-04T12:38:14;101480.25;;;39.89;13.63
22830;BME280;11581;51.250;6.778;2022-07-04T12:40:56;101431.91;;;39.24;13.96
22830;BME280;11581;51.250;6.778;2022-07-04T12:43:44;101399.66;;;38.79;14.11
22830;BME280;11581;51.250;6.778;2022-07-04T12:46:15;101457.47;;;38.87;14.40
22830;BME280;11581;51.250;6.778;2022-07-04T12:48:53;101466.53;;;38.71;14.27
22830;BME280;11581;51.250;6.778;2022-07-04T12:51:22;101464.03;;;38.47;14.34
22830;BME280;11581;51.250;6.778;2022-07-04T12:53:50;101393.16;;;37.82;14.40
22830;BME280;11581;51.250;6.778;2022-07-04T12:56:37;101464.81;;;37.90;15.10
22830;BME280;11581;51.250;6.778;2022-07-04T12:59:05;101413.28;;;37.38;14.98
22830;BME280;11581;51.250;6.778;2022-07-04T13:01:38;101460.69;;;37.20;15.27
22830;BME280;11581;51.250;6.778;2022-07-04T13:04:05;101468.44;;;36.91;15.78
22830;BME280;11581;51.250;6.778;2022-07-04T13:06:35;101425.19;;;36.34;15.69
22830;BME280;11581;51.250;6.778;2022-07-04T13:09:03;101460.88;;;36.22;16.13
22830;BME280;11581;51.250;6.778;2022-07-04T13:11:31;101464.63;;;35.94;16.88